sensor_id;sensor_type;location;lat;lon;timestamp;pressure;altitude;pressure_sealevel;temperature;humidity
42289;BME280;30230;47.520;19.016;2023-05-21T00:00:08;99253.13;;;17.42;81.21
42289;BME280;30230;47.520;19.016;2023-05-21T00:02:11;99251.16;;;17.37;81.22
42289;BME280;30230;47.520;19.016;2023-05-21T00:04:14;99256.34;;;17.39;80.56
42289;BME280;30230;47.520;19.016;2023-05-21T00:06:14;99246.59;;;17.43;78.95
42289;BME280;30230;47.520;19.016;2023-05-21T00:08:15;99246.81;;;17.41;77.92
42289;BME280;30230;47.520;19.016;2023-05-21T00:10:16;99240.19;;;17.54;76.14
42289;BME280;30230;47.520;19.016;2023-05-21T00:12:16;99246.56;;;17.60;76.25
42289;BME280;30230;47.520;19.016;2023-05-21T00:14:17;99238.72;;;17.63;75.95
42289;BME280;30230;47.520;19.016;2023-05-21T00:16:17;99254.34;;;17.68;74.70
42289;BME280;30230;47.520;19.016;2023-05-21T00:18:18;99244.59;;;17.55;75.85
42289;BME280;30230;47.520;19.016;2023-05-21T00:20:18;99254.19;;;17.58;76.20
42289;BME280;30230;47.520;19.016;2023-05-21T00:22:18;99247.22;;;17.50;76.58
42289;BME280;30230;47.520;19.016;2023-05-21T00:24:19;99246.16;;;17.51;77.14
42289;BME280;30230;47.520;19.016;2023-05-21T00:26:20;99246.06;;;17.46;77.22
42289;BME280;30230;47.520;19.016;2023-05-21T00:28:20;99244.59;;;17.38;77.59
42289;BME280;30230;47.520;19.016;2023-05-21T00:30:21;99255.53;;;17.38;78.07
42289;BME280;30230;47.520;19.016;2023-05-21T00:32:21;99257.44;;;17.38;77.93
42289;BME280;30230;47.520;19.016;2023-05-21T00:34:22;99254.91;;;17.36;77.89
42289;BME280;30230;47.520;19.016;2023-05-21T00:36:22;99259.72;;;17.29;77.70
42289;BME280;30230;47.520;19.016;2023-05-21T00:38:23;99257.47;;;17.26;78.06
42289;BME280;30230;47.520;19.016;2023-05-21T00:40:23;99254.53;;;17.28;78.76
42289;BME280;30230;47.520;19.016;2023-05-21T00:42:24;99250.38;;;17.25;78.91
42289;BME280;30230;47.520;19.016;2023-05-21T00:44:26;99254.75;;;17.26;78.61
42289;BME280;30230;47.520;19.016;2023-05-21T00:46:33;99238.72;;;17.13;78.70
42289;BME280;30230;47.520;19.016;2023-05-21T00:48:34;99250.53;;;17.18;78.75
42289;BME280;30230;47.520;19.016;2023-05-21T00:50:34;99243.53;;;17.06;79.25
42289;BME280;30230;47.520;19.016;2023-05-21T00:52:35;99251.69;;;17.06;80.46
42289;BME280;30230;47.520;19.016;2023-05-21T00:54:40;99249.38;;;16.98;81.29
42289;BME280;30230;47.520;19.016;2023-05-21T00:56:41;99247.94;;;16.95;80.87
42289;BME280;30230;47.520;19.016;2023-05-21T00:58:41;99248.34;;;16.87;83.57
42289;BME280;30230;47.520;19.016;2023-05-21T01:00:42;99249.34;;;16.81;82.50
42289;BME280;30230;47.520;19.016;2023-05-21T01:02:43;99244.63;;;16.76;82.90
42289;BME280;30230;47.520;19.016;2023-05-21T01:04:44;99243.06;;;16.68;83.10
42289;BME280;30230;47.520;19.016;2023-05-21T01:06:45;99249.47;;;16.74;82.33
42289;BME280;30230;47.520;19.016;2023-05-21T01:08:45;99248.66;;;16.62;83.10
42289;BME280;30230;47.520;19.016;2023-05-21T01:10:47;99242.28;;;16.56;83.16
42289;BME280;30230;47.520;19.016;2023-05-21T01:12:48;99244.75;;;16.58;84.29
42289;BME280;30230;47.520;19.016;2023-05-21T01:14:50;99235.38;;;16.65;82.76
42289;BME280;30230;47.520;19.016;2023-05-21T01:16:51;99240.50;;;16.62;84.66
42289;BME280;30230;47.520;19.016;2023-05-21T01:18:52;99218.13;;;16.48;84.47
42289;BME280;30230;47.520;19.016;2023-05-21T01:20:52;99232.78;;;16.59;84.15
42289;BME280;30230;47.520;19.016;2023-05-21T01:22:55;99239.22;;;16.53;83.34
42289;BME280;30230;47.520;19.016;2023-05-21T01:24:56;99236.28;;;16.54;84.15
42289;BME280;30230;47.520;19.016;2023-05-21T01:26:58;99233.84;;;16.58;83.00
42289;BME280;30230;47.520;19.016;2023-05-21T01:28:59;99229.38;;;16.52;84.30
42289;BME280;30230;47.520;19.016;2023-05-21T01:31:06;99228.72;;;16.45;83.68
42289;BME280;30230;47.520;19.016;2023-05-21T01:33:15;99221.84;;;16.42;83.56
42289;BME280;30230;47.520;19.016;2023-05-21T01:35:21;99231.19;;;16.46;84.61
42289;BME280;30230;47.520;19.016;2023-05-21T01:37:45;99237.38;;;16.41;84.95
42289;BME280;30230;47.520;19.016;2023-05-21T01:39:55;99229.91;;;16.37;85.01
42289;BME280;30230;47.520;19.016;2023-05-21T01:41:56;99235.34;;;16.37;84.12
42289;BME280;30230;47.520;19.016;2023-05-21T01:43:57;99237.16;;;16.31;85.32
42289;BME280;30230;47.520;19.016;2023-05-21T01:45:58;99237.88;;;16.27;84.79
42289;BME280;30230;47.520;19.016;2023-05-21T01:47:59;99237.56;;;16.23;85.41
42289;BME280;30230;47.520;19.016;2023-05-21T01:50:00;99234.84;;;16.11;87.87
42289;BME280;30230;47.520;19.016;2023-05-21T01:52:01;99233.16;;;16.22;86.18
42289;BME280;30230;47.520;19.016;2023-05-21T01:54:02;99239.69;;;16.21;85.97
42289;BME280;30230;47.520;19.016;2023-05-21T01:56:02;99233.03;;;16.17;86.11
42289;BME280;30230;47.520;19.016;2023-05-21T01:58:03;99236.28;;;16.14;86.57
42289;BME280;30230;47.520;19.016;2023-05-21T02:00:04;99230.22;;;16.12;87.07
42289;BME280;30230;47.520;19.016;2023-05-21T02:02:04;99230.09;;;16.07;86.53
42289;BME280;30230;47.520;19.016;2023-05-21T02:04:05;99234.41;;;16.03;87.00
42289;BME280;30230;47.520;19.016;2023-05-21T02:06:05;99234.41;;;16.03;87.30
42289;BME280;30230;47.520;19.016;2023-05-21T02:08:06;99236.41;;;15.96;86.92
42289;BME280;30230;47.520;19.016;2023-05-21T02:10:10;99234.28;;;15.86;88.68
42289;BME280;30230;47.520;19.016;2023-05-21T02:12:11;99236.19;;;15.85;88.40
42289;BME280;30230;47.520;19.016;2023-05-21T02:14:11;99232.88;;;15.83;89.15
42289;BME280;30230;47.520;19.016;2023-05-21T02:16:13;99228.63;;;15.87;88.67
42289;BME280;30230;47.520;19.016;2023-05-21T02:18:14;99224.53;;;16.02;87.49
42289;BME280;30230;47.520;19.016;2023-05-21T02:20:16;99227.06;;;15.92;89.31
42289;BME280;30230;47.520;19.016;2023-05-21T02:22:16;99227.69;;;15.82;89.89
42289;BME280;30230;47.520;19.016;2023-05-21T02:24:17;99231.44;;;15.81;88.55
42289;BME280;30230;47.520;19.016;2023-05-21T02:26:17;99224.38;;;15.68;87.69
42289;BME280;30230;47.520;19.016;2023-05-21T02:28:17;99230.00;;;15.55;90.87
42289;BME280;30230;47.520;19.016;2023-05-21T02:30:18;99231.44;;;15.46;90.31
42289;BME280;30230;47.520;19.016;2023-05-21T02:32:19;99224.69;;;15.36;92.22
42289;BME280;30230;47.520;19.016;2023-05-21T02:34:20;99226.22;;;15.32;91.48
42289;BME280;30230;47.520;19.016;2023-05-21T02:36:20;99227.06;;;15.33;90.67
42289;BME280;30230;47.520;19.016;2023-05-21T02:38:21;99216.63;;;15.30;91.90
42289;BME280;30230;47.520;19.016;2023-05-21T02:40:22;99214.38;;;15.38;92.01
42289;BME280;30230;47.520;19.016;2023-05-21T02:42:24;99216.75;;;15.23;92.63
42289;BME280;30230;47.520;19.016;2023-05-21T02:44:25;99209.41;;;15.12;93.40
42289;BME280;30230;47.520;19.016;2023-05-21T02:46:25;99215.91;;;15.23;90.95
42289;BME280;30230;47.520;19.016;2023-05-21T02:48:25;99222.53;;;15.15;93.34
42289;BME280;30230;47.520;19.016;2023-05-21T02:50:26;99232.47;;;15.09;94.51
42289;BME280;30230;47.520;19.016;2023-05-21T02:52:27;99227.50;;;15.06;94.11
42289;BME280;30230;47.520;19.016;2023-05-21T02:54:27;99225.00;;;15.05;95.47
42289;BME280;30230;47.520;19.016;2023-05-21T02:56:27;99227.59;;;15.00;94.88
42289;BME280;30230;47.520;19.016;2023-05-21T02:58:28;99224.88;;;15.00;95.42
42289;BME280;30230;47.520;19.016;2023-05-21T03:00:28;99222.63;;;14.97;94.59
42289;BME280;30230;47.520;19.016;2023-05-21T03:02:28;99225.06;;;14.87;97.15
42289;BME280;30230;47.520;19.016;2023-05-21T03:04:29;99223.78;;;14.89;96.02
42289;BME280;30230;47.520;19.016;2023-05-21T03:06:29;99222.72;;;14.90;96.38
42289;BME280;30230;47.520;19.016;2023-05-21T03:08:31;99227.91;;;14.80;96.33
42289;BME280;30230;47.520;19.016;2023-05-21T03:10:32;99225.44;;;14.78;97.15
42289;BME280;30230;47.520;19.016;2023-05-21T03:12:32;99230.25;;;14.76;99.26
42289;BME280;30230;47.520;19.016;2023-05-21T03:14:32;99219.47;;;14.70;98.58
42289;BME280;30230;47.520;19.016;2023-05-21T03:16:35;99225.75;;;14.70;99.31
42289;BME280;30230;47.520;19.016;2023-05-21T03:18:37;99218.16;;;14.72;99.36
42289;BME280;30230;47.520;19.016;2023-05-21T03:20:37;99205.88;;;14.70;99.97
42289;BME280;30230;47.520;19.016;2023-05-21T03:22:44;99216.75;;;14.70;99.64
42289;BME280;30230;47.520;19.016;2023-05-21T03:24:44;99216.06;;;14.74;99.51
42289;BME280;30230;47.520;19.016;2023-05-21T03:26:45;99206.25;;;14.73;99.24
42289;BME280;30230;47.520;19.016;2023-05-21T03:28:47;99216.41;;;14.78;98.85
42289;BME280;30230;47.520;19.016;2023-05-21T03:30:47;99221.50;;;14.74;99.83
42289;BME280;30230;47.520;19.016;2023-05-21T03:32:51;99231.75;;;14.72;99.40
42289;BME280;30230;47.520;19.016;2023-05-21T03:34:51;99227.41;;;14.71;100.00
42289;BME280;30230;47.520;19.016;2023-05-21T03:36:52;99229.28;;;14.71;100.00
42289;BME280;30230;47.520;19.016;2023-05-21T03:38:53;99228.16;;;14.78;100.00
42289;BME280;30230;47.520;19.016;2023-05-21T03:40:53;99234.84;;;14.76;100.00
42289;BME280;30230;47.520;19.016;2023-05-21T03:42:53;99229.66;;;14.74;100.00
42289;BME280;30230;47.520;19.016;2023-05-21T03:44:54;99219.25;;;14.71;100.00
42289;BME280;30230;47.520;19.016;2023-05-21T03:46:54;99235.00;;;14.81;100.00
42289;BME280;30230;47.520;19.016;2023-05-21T03:48:55;99232.50;;;14.79;100.00
42289;BME280;30230;47.520;19.016;2023-05-21T03:50:57;99232.03;;;14.82;100.00
42289;BME280;30230;47.520;19.016;2023-05-21T03:52:57;99230.38;;;14.81;100.00
42289;BME280;30230;47.520;19.016;2023-05-21T03:54:58;99231.34;;;14.87;100.00
42289;BME280;30230;47.520;19.016;2023-05-21T03:56:58;99236.72;;;15.05;100.00
42289;BME280;30230;47.520;19.016;2023-05-21T03:58:58;99227.94;;;15.03;100.00
42289;BME280;30230;47.520;19.016;2023-05-21T04:00:59;99229.50;;;15.11;100.00
42289;BME280;30230;47.520;19.016;2023-05-21T04:03:04;99217.22;;;15.20;100.00
42289;BME280;30230;47.520;19.016;2023-05-21T04:05:06;99226.34;;;15.26;100.00
42289;BME280;30230;47.520;19.016;2023-05-21T04:07:06;99225.41;;;15.32;100.00
42289;BME280;30230;47.520;19.016;2023-05-21T04:09:13;99235.22;;;15.45;97.30
42289;BME280;30230;47.520;19.016;2023-05-21T04:11:14;99233.44;;;15.50;97.75
42289;BME280;30230;47.520;19.016;2023-05-21T04:13:14;99239.00;;;15.55;99.37
42289;BME280;30230;47.520;19.016;2023-05-21T04:15:14;99241.63;;;15.62;99.15
42289;BME280;30230;47.520;19.016;2023-05-21T04:17:17;99240.81;;;15.73;98.36
42289;BME280;30230;47.520;19.016;2023-05-21T04:19:18;99230.63;;;15.80;98.22
42289;BME280;30230;47.520;19.016;2023-05-21T04:21:18;99232.88;;;15.83;97.45
42289;BME280;30230;47.520;19.016;2023-05-21T04:23:19;99236.28;;;15.91;96.59
42289;BME280;30230;47.520;19.016;2023-05-21T04:25:22;99240.78;;;15.97;96.34
42289;BME280;30230;47.520;19.016;2023-05-21T04:27:23;99237.59;;;16.00;94.81
42289;BME280;30230;47.520;19.016;2023-05-21T04:29:24;99235.34;;;16.08;94.46
42289;BME280;30230;47.520;19.016;2023-05-21T04:31:25;99232.22;;;16.17;92.76
42289;BME280;30230;47.520;19.016;2023-05-21T04:33:25;99229.59;;;16.22;91.19
42289;BME280;30230;47.520;19.016;2023-05-21T04:35:26;99232.22;;;16.28;91.28
42289;BME280;30230;47.520;19.016;2023-05-21T04:37:26;99233.34;;;16.32;89.74
42289;BME280;30230;47.520;19.016;2023-05-21T04:39:27;99221.25;;;16.40;88.04
42289;BME280;30230;47.520;19.016;2023-05-21T04:41:28;99234.47;;;16.48;85.89
42289;BME280;30230;47.520;19.016;2023-05-21T04:43:29;99225.88;;;16.39;87.71
42289;BME280;30230;47.520;19.016;2023-05-21T04:45:29;99231.63;;;16.55;87.48
42289;BME280;30230;47.520;19.016;2023-05-21T04:47:29;99229.47;;;16.57;87.25
42289;BME280;30230;47.520;19.016;2023-05-21T04:49:34;99233.97;;;16.63;84.21
42289;BME280;30230;47.520;19.016;2023-05-21T04:51:34;99239.75;;;16.66;83.83
42289;BME280;30230;47.520;19.016;2023-05-21T04:53:36;99237.59;;;16.68;84.19
42289;BME280;30230;47.520;19.016;2023-05-21T04:55:37;99229.69;;;16.67;84.41
42289;BME280;30230;47.520;19.016;2023-05-21T04:57:39;99227.53;;;16.69;84.04
42289;BME280;30230;47.520;19.016;2023-05-21T04:59:39;99223.16;;;16.68;83.51
42289;BME280;30230;47.520;19.016;2023-05-21T05:01:40;99234.47;;;16.88;80.47
42289;BME280;30230;47.520;19.016;2023-05-21T05:03:44;99226.69;;;16.80;81.69
42289;BME280;30230;47.520;19.016;2023-05-21T05:05:45;99226.91;;;16.79;83.39
42289;BME280;30230;47.520;19.016;2023-05-21T05:07:45;99225.84;;;16.80;83.82
42289;BME280;30230;47.520;19.016;2023-05-21T05:09:47;99218.72;;;16.79;84.02
42289;BME280;30230;47.520;19.016;2023-05-21T05:11:47;99232.81;;;16.87;83.90
42289;BME280;30230;47.520;19.016;2023-05-21T05:13:48;99220.25;;;16.86;83.49
42289;BME280;30230;47.520;19.016;2023-05-21T05:15:48;99229.41;;;16.80;83.73
42289;BME280;30230;47.520;19.016;2023-05-21T05:17:48;99232.44;;;16.96;82.27
42289;BME280;30230;47.520;19.016;2023-05-21T05:19:49;99235.63;;;16.92;80.54
42289;BME280;30230;47.520;19.016;2023-05-21T05:21:49;99229.59;;;16.90;80.76
42289;BME280;30230;47.520;19.016;2023-05-21T05:23:50;99229.19;;;16.99;81.39
42289;BME280;30230;47.520;19.016;2023-05-21T05:25:51;99223.72;;;16.99;81.14
42289;BME280;30230;47.520;19.016;2023-05-21T05:27:51;99234.16;;;17.02;82.39
42289;BME280;30230;47.520;19.016;2023-05-21T05:29:52;99225.16;;;17.01;83.30
42289;BME280;30230;47.520;19.016;2023-05-21T05:31:52;99221.78;;;17.11;83.11
42289;BME280;30230;47.520;19.016;2023-05-21T05:33:52;99235.66;;;17.09;83.56
42289;BME280;30230;47.520;19.016;2023-05-21T05:35:53;99233.00;;;17.14;83.45
42289;BME280;30230;47.520;19.016;2023-05-21T05:37:53;99227.63;;;17.19;83.41
42289;BME280;30230;47.520;19.016;2023-05-21T05:39:54;99232.91;;;17.26;82.59
42289;BME280;30230;47.520;19.016;2023-05-21T05:41:54;99219.94;;;17.33;81.99
42289;BME280;30230;47.520;19.016;2023-05-21T05:43:54;99221.34;;;17.36;81.36
42289;BME280;30230;47.520;19.016;2023-05-21T05:45:55;99227.56;;;17.48;79.96
42289;BME280;30230;47.520;19.016;2023-05-21T05:47:55;99225.81;;;17.59;79.47
42289;BME280;30230;47.520;19.016;2023-05-21T05:49:56;99221.69;;;17.73;77.87
42289;BME280;30230;47.520;19.016;2023-05-21T05:51:56;99221.97;;;17.77;77.62
42289;BME280;30230;47.520;19.016;2023-05-21T05:53:57;99219.72;;;17.90;75.68
42289;BME280;30230;47.520;19.016;2023-05-21T05:55:57;99217.56;;;17.92;75.15
42289;BME280;30230;47.520;19.016;2023-05-21T05:57:58;99212.22;;;18.03;75.23
42289;BME280;30230;47.520;19.016;2023-05-21T05:59:59;99216.72;;;18.14;75.33
42289;BME280;30230;47.520;19.016;2023-05-21T06:01:59;99205.63;;;18.20;73.24
42289;BME280;30230;47.520;19.016;2023-05-21T06:04:00;99210.63;;;18.29;73.58
42289;BME280;30230;47.520;19.016;2023-05-21T06:06:00;99215.59;;;18.32;73.70
42289;BME280;30230;47.520;19.016;2023-05-21T06:08:01;99210.19;;;18.37;72.57
42289;BME280;30230;47.520;19.016;2023-05-21T06:10:01;99208.19;;;18.54;71.61
42289;BME280;30230;47.520;19.016;2023-05-21T06:12:02;99212.94;;;18.64;69.87
42289;BME280;30230;47.520;19.016;2023-05-21T06:14:02;99209.06;;;18.60;70.87
42289;BME280;30230;47.520;19.016;2023-05-21T06:16:03;99198.03;;;18.71;70.20
42289;BME280;30230;47.520;19.016;2023-05-21T06:18:03;99211.50;;;18.78;69.44
42289;BME280;30230;47.520;19.016;2023-05-21T06:20:04;99204.19;;;18.89;69.38
42289;BME280;30230;47.520;19.016;2023-05-21T06:22:05;99200.47;;;19.00;68.64
42289;BME280;30230;47.520;19.016;2023-05-21T06:24:05;99203.56;;;19.09;67.65
42289;BME280;30230;47.520;19.016;2023-05-21T06:26:06;99200.88;;;19.14;68.09
42289;BME280;30230;47.520;19.016;2023-05-21T06:28:06;99202.88;;;19.23;67.53
42289;BME280;30230;47.520;19.016;2023-05-21T06:30:07;99198.25;;;19.29;68.32
42289;BME280;30230;47.520;19.016;2023-05-21T06:32:07;99192.81;;;19.34;67.58
42289;BME280;30230;47.520;19.016;2023-05-21T06:34:08;99191.22;;;19.43;67.34
42289;BME280;30230;47.520;19.016;2023-05-21T06:36:10;99186.63;;;19.49;67.71
42289;BME280;30230;47.520;19.016;2023-05-21T06:38:11;99177.59;;;19.53;68.20
42289;BME280;30230;47.520;19.016;2023-05-21T06:40:11;99192.00;;;19.71;67.87
42289;BME280;30230;47.520;19.016;2023-05-21T06:42:12;99183.81;;;19.81;67.17
42289;BME280;30230;47.520;19.016;2023-05-21T06:44:13;99180.81;;;19.83;66.41
42289;BME280;30230;47.520;19.016;2023-05-21T06:46:14;99177.56;;;19.91;65.88
42289;BME280;30230;47.520;19.016;2023-05-21T06:48:15;99184.75;;;20.02;64.72
42289;BME280;30230;47.520;19.016;2023-05-21T06:50:16;99189.47;;;20.17;66.55
42289;BME280;30230;47.520;19.016;2023-05-21T06:52:16;99183.44;;;20.20;64.96
42289;BME280;30230;47.520;19.016;2023-05-21T06:54:17;99182.34;;;20.26;65.87
42289;BME280;30230;47.520;19.016;2023-05-21T06:56:17;99180.75;;;20.35;66.28
42289;BME280;30230;47.520;19.016;2023-05-21T06:58:18;99185.50;;;20.55;64.52
42289;BME280;30230;47.520;19.016;2023-05-21T07:00:18;99178.41;;;20.64;63.61
42289;BME280;30230;47.520;19.016;2023-05-21T07:02:19;99176.22;;;20.76;65.17
42289;BME280;30230;47.520;19.016;2023-05-21T07:04:19;99178.16;;;20.91;61.48
42289;BME280;30230;47.520;19.016;2023-05-21T07:06:20;99176.50;;;21.05;62.18
42289;BME280;30230;47.520;19.016;2023-05-21T07:08:21;99180.91;;;21.12;61.92
42289;BME280;30230;47.520;19.016;2023-05-21T07:10:21;99182.00;;;21.26;62.84
42289;BME280;30230;47.520;19.016;2023-05-21T07:12:22;99168.28;;;21.41;59.91
42289;BME280;30230;47.520;19.016;2023-05-21T07:14:23;99167.69;;;21.54;59.22
42289;BME280;30230;47.520;19.016;2023-05-21T07:16:24;99162.47;;;21.58;60.92
42289;BME280;30230;47.520;19.016;2023-05-21T07:18:25;99169.03;;;21.77;59.25
42289;BME280;30230;47.520;19.016;2023-05-21T07:20:25;99158.28;;;21.76;58.88
42289;BME280;30230;47.520;19.016;2023-05-21T07:22:25;99171.75;;;21.88;59.79
42289;BME280;30230;47.520;19.016;2023-05-21T07:24:26;99170.91;;;21.97;58.85
42289;BME280;30230;47.520;19.016;2023-05-21T07:26:27;99155.22;;;21.98;59.42
42289;BME280;30230;47.520;19.016;2023-05-21T07:28:27;99167.81;;;22.14;57.32
42289;BME280;30230;47.520;19.016;2023-05-21T07:30:27;99171.38;;;22.20;58.32
42289;BME280;30230;47.520;19.016;2023-05-21T07:32:28;99163.34;;;22.28;57.29
42289;BME280;30230;47.520;19.016;2023-05-21T07:34:28;99157.25;;;22.36;56.85
42289;BME280;30230;47.520;19.016;2023-05-21T07:36:29;99160.75;;;22.47;58.46
42289;BME280;30230;47.520;19.016;2023-05-21T07:38:30;99159.63;;;22.53;56.76
42289;BME280;30230;47.520;19.016;2023-05-21T07:40:31;99160.59;;;22.73;57.07
42289;BME280;30230;47.520;19.016;2023-05-21T07:42:31;99156.72;;;22.74;55.41
42289;BME280;30230;47.520;19.016;2023-05-21T07:44:32;99159.41;;;22.84;58.03
42289;BME280;30230;47.520;19.016;2023-05-21T07:46:32;99156.88;;;22.98;57.93
42289;BME280;30230;47.520;19.016;2023-05-21T07:48:33;99162.50;;;23.17;56.60
42289;BME280;30230;47.520;19.016;2023-05-21T07:50:33;99160.75;;;23.26;54.87
42289;BME280;30230;47.520;19.016;2023-05-21T07:52:33;99166.22;;;23.31;54.45
42289;BME280;30230;47.520;19.016;2023-05-21T07:54:34;99161.44;;;23.42;54.02
42289;BME280;30230;47.520;19.016;2023-05-21T07:56:34;99161.16;;;23.43;55.65
42289;BME280;30230;47.520;19.016;2023-05-21T07:58:35;99167.09;;;23.55;56.05
42289;BME280;30230;47.520;19.016;2023-05-21T08:00:42;99155.69;;;23.67;53.13
42289;BME280;30230;47.520;19.016;2023-05-21T08:02:43;99145.19;;;23.69;51.93
42289;BME280;30230;47.520;19.016;2023-05-21T08:04:44;99160.75;;;23.84;52.61
42289;BME280;30230;47.520;19.016;2023-05-21T08:06:44;99154.56;;;23.92;54.63
42289;BME280;30230;47.520;19.016;2023-05-21T08:08:45;99160.56;;;23.99;53.70
42289;BME280;30230;47.520;19.016;2023-05-21T08:10:46;99151.56;;;24.12;54.32
42289;BME280;30230;47.520;19.016;2023-05-21T08:12:46;99153.75;;;24.15;53.10
42289;BME280;30230;47.520;19.016;2023-05-21T08:14:47;99147.28;;;24.25;51.26
42289;BME280;30230;47.520;19.016;2023-05-21T08:16:47;99153.00;;;24.29;51.04
42289;BME280;30230;47.520;19.016;2023-05-21T08:18:48;99153.50;;;24.36;51.74
42289;BME280;30230;47.520;19.016;2023-05-21T08:20:49;99155.25;;;24.51;51.16
42289;BME280;30230;47.520;19.016;2023-05-21T08:22:49;99152.69;;;24.54;51.78
42289;BME280;30230;47.520;19.016;2023-05-21T08:24:50;99158.88;;;24.65;50.83
42289;BME280;30230;47.520;19.016;2023-05-21T08:26:50;99154.84;;;24.57;51.68
42289;BME280;30230;47.520;19.016;2023-05-21T08:28:51;99160.91;;;24.78;49.79
42289;BME280;30230;47.520;19.016;2023-05-21T08:30:51;99151.25;;;24.76;50.49
42289;BME280;30230;47.520;19.016;2023-05-21T08:32:51;99137.16;;;24.77;52.06
42289;BME280;30230;47.520;19.016;2023-05-21T08:34:52;99160.56;;;24.99;50.18
42289;BME280;30230;47.520;19.016;2023-05-21T08:36:53;99150.09;;;24.95;51.28
42289;BME280;30230;47.520;19.016;2023-05-21T08:38:54;99157.91;;;25.12;49.36
42289;BME280;30230;47.520;19.016;2023-05-21T08:40:54;99162.31;;;25.27;49.10
42289;BME280;30230;47.520;19.016;2023-05-21T08:42:55;99163.34;;;25.31;49.86
42289;BME280;30230;47.520;19.016;2023-05-21T08:44:58;99161.16;;;25.47;48.28
42289;BME280;30230;47.520;19.016;2023-05-21T08:47:01;99162.84;;;25.29;48.17
42289;BME280;30230;47.520;19.016;2023-05-21T08:49:02;99159.72;;;25.50;48.55
42289;BME280;30230;47.520;19.016;2023-05-21T08:51:03;99157.69;;;25.55;47.93
42289;BME280;30230;47.520;19.016;2023-05-21T08:53:03;99161.59;;;25.54;49.41
42289;BME280;30230;47.520;19.016;2023-05-21T08:55:04;99159.22;;;25.61;49.41
42289;BME280;30230;47.520;19.016;2023-05-21T08:57:05;99160.16;;;25.70;47.37
42289;BME280;30230;47.520;19.016;2023-05-21T08:59:07;99151.16;;;25.79;47.38
42289;BME280;30230;47.520;19.016;2023-05-21T09:01:08;99155.47;;;25.98;49.63
42289;BME280;30230;47.520;19.016;2023-05-21T09:03:09;99158.97;;;26.04;46.59
42289;BME280;30230;47.520;19.016;2023-05-21T09:05:12;99159.59;;;26.01;46.76
42289;BME280;30230;47.520;19.016;2023-05-21T09:07:14;99160.59;;;26.19;47.40
42289;BME280;30230;47.520;19.016;2023-05-21T09:09:32;99155.97;;;26.14;48.41
42289;BME280;30230;47.520;19.016;2023-05-21T09:11:33;99154.03;;;26.15;46.56
42289;BME280;30230;47.520;19.016;2023-05-21T09:13:34;99149.03;;;26.03;46.17
42289;BME280;30230;47.520;19.016;2023-05-21T09:15:35;99154.03;;;26.15;46.37
42289;BME280;30230;47.520;19.016;2023-05-21T09:17:36;99149.94;;;26.26;47.30
42289;BME280;30230;47.520;19.016;2023-05-21T09:19:36;99151.63;;;26.36;45.79
42289;BME280;30230;47.520;19.016;2023-05-21T09:21:38;99146.03;;;26.27;46.75
42289;BME280;30230;47.520;19.016;2023-05-21T09:23:38;99147.84;;;26.45;44.36
42289;BME280;30230;47.520;19.016;2023-05-21T09:25:38;99146.31;;;26.53;46.37
42289;BME280;30230;47.520;19.016;2023-05-21T09:27:39;99145.63;;;26.47;44.80
42289;BME280;30230;47.520;19.016;2023-05-21T09:29:41;99149.03;;;26.67;44.12
42289;BME280;30230;47.520;19.016;2023-05-21T09:31:44;99152.56;;;26.59;44.86
42289;BME280;30230;47.520;19.016;2023-05-21T09:33:45;99143.25;;;26.77;45.40
42289;BME280;30230;47.520;19.016;2023-05-21T09:35:47;99148.81;;;26.99;43.53
42289;BME280;30230;47.520;19.016;2023-05-21T09:37:48;99144.25;;;26.81;43.76
42289;BME280;30230;47.520;19.016;2023-05-21T09:39:49;99143.97;;;26.83;44.65
42289;BME280;30230;47.520;19.016;2023-05-21T09:41:51;99144.91;;;27.00;44.65
42289;BME280;30230;47.520;19.016;2023-05-21T09:43:51;99148.94;;;26.94;43.48
42289;BME280;30230;47.520;19.016;2023-05-21T09:45:53;99144.16;;;27.31;44.53
42289;BME280;30230;47.520;19.016;2023-05-21T09:47:55;99142.81;;;27.29;43.73
42289;BME280;30230;47.520;19.016;2023-05-21T09:49:59;99137.59;;;27.27;41.35
42289;BME280;30230;47.520;19.016;2023-05-21T09:51:59;99133.59;;;27.11;43.31
42289;BME280;30230;47.520;19.016;2023-05-21T09:54:00;99148.13;;;27.16;42.28
42289;BME280;30230;47.520;19.016;2023-05-21T09:56:01;99145.47;;;27.34;43.55
42289;BME280;30230;47.520;19.016;2023-05-21T09:58:03;99147.47;;;27.42;43.15
42289;BME280;30230;47.520;19.016;2023-05-21T10:00:04;99149.31;;;27.46;43.41
42289;BME280;30230;47.520;19.016;2023-05-21T10:02:18;99144.97;;;27.63;44.41
42289;BME280;30230;47.520;19.016;2023-05-21T10:04:18;99145.31;;;27.61;43.75
42289;BME280;30230;47.520;19.016;2023-05-21T10:06:20;99136.78;;;27.89;43.33
42289;BME280;30230;47.520;19.016;2023-05-21T10:08:25;99134.69;;;27.63;38.46
42289;BME280;30230;47.520;19.016;2023-05-21T10:10:27;99132.72;;;27.86;42.44
42289;BME280;30230;47.520;19.016;2023-05-21T10:12:29;99127.38;;;28.07;42.75
42289;BME280;30230;47.520;19.016;2023-05-21T10:14:30;99138.97;;;28.09;42.38
42289;BME280;30230;47.520;19.016;2023-05-21T10:16:33;99133.41;;;28.09;42.05
42289;BME280;30230;47.520;19.016;2023-05-21T10:18:36;99130.19;;;28.24;39.42
42289;BME280;30230;47.520;19.016;2023-05-21T10:20:37;99130.66;;;28.26;39.78
42289;BME280;30230;47.520;19.016;2023-05-21T10:22:38;99134.44;;;28.30;39.79
42289;BME280;30230;47.520;19.016;2023-05-21T10:24:39;99125.81;;;28.41;40.91
42289;BME280;30230;47.520;19.016;2023-05-21T10:26:43;99114.66;;;28.32;39.79
42289;BME280;30230;47.520;19.016;2023-05-21T10:28:45;99126.78;;;28.36;40.36
42289;BME280;30230;47.520;19.016;2023-05-21T10:30:45;99128.53;;;28.32;36.67
42289;BME280;30230;47.520;19.016;2023-05-21T10:32:46;99125.03;;;28.49;39.18